Aviation Digital Data Service (ADDS)

Output produced by METARs form (1315 UTC 14 December 2017)
found at http://aviationweather.gov/adds/metars/
 
METAR text: KCVC 141255Z AUTO 00000KT 10SM CLR 03/M01 A2990 RMK AO2
Conditions at: KCVC (COVINGTON MUNI , GA, US) observed 1255 UTC 14 December 2017
Temperature: 3.0°C (37°F)
Dewpoint: -1.0°C (30°F) [RH = 75%]
Pressure (altimeter): 29.90 inches Hg (1012.6 mb)
Winds: calm
Visibility: 10 or more miles (16+ km)
Ceiling: at least 12,000 feet AGL
Clouds: sky clear below 12,000 feet AGL
Weather: automated observation with no human augmentation;
there may or may not be significant weather present at this time